Skip to main content.
 TIME   TEMPERATURE   WINDSPEED   DIRECTION   HUMIDITY   BAROMETER   RAINFALL 
5:35 16.3°C (61.3°F) 0.0 kmh (0.0 mph) ENE 70% 1011.0hPa (29.85 inHg) 3.0mm (0.12 in.)
4:35 16.2°C (61.2 °F) 13.0 kmh (8.1 mph) NE 71% 1010.0hPa (29.83 inHg) 3.0mm (0.12 in.)
3:35 16.2°C (61.2 °F) 14.8 kmh (9.2 mph) NNE 71% 1010.0hPa (29.83 inHg) 3.0mm (0.12 in.)
2:35 16.1°C (61.0 °F) 5.6 kmh (3.5 mph) NNW 72% 1010.0hPa (29.83 inHg) 3.0mm (0.12 in.)
1:35 16.1°C (61.0 °F) 11.1 kmh (6.9 mph) NE 72% 1010.0hPa (29.83 inHg) 3.0mm (0.12 in.)
12:35 16.2°C (61.2 °F) 13.0 kmh (8.1 mph) W 72% 1010.0hPa (29.83 inHg) 3.0mm (0.12 in.)
11:35 16.2°C (61.2 °F) 13.0 kmh (8.1 mph) NNE 72% 1010.0hPa (29.83 inHg) 3.0mm (0.12 in.)
10:35 16.2°C (61.2 °F) 7.4 kmh (4.6 mph) WNW 73% 1010.0hPa (29.83 inHg) 3.0mm (0.12 in.)
9:35 16.2°C (61.2 °F) 16.7 kmh (10.4 mph) WNW 73% 1010.0hPa (29.83 inHg) 3.0mm (0.12 in.)
8:35 16.3°C (61.3 °F) 14.8 kmh (9.2 mph) NNE 74% 1009.0hPa (29.80 inHg) 3.0mm (0.12 in.)
7:35 16.1°C (61.0 °F) 11.1 kmh (6.9 mph) NNE 74% 1009.0hPa (29.80 inHg) 3.0mm (0.12 in.)
6:35 16.0°C (60.8 °F) 16.7 kmh (10.4 mph) WNW 75% 1009.0hPa (29.80 inHg) 3.0mm (0.12 in.)
5:35 16.0°C (60.8 °F) 20.4 kmh (12.7 mph) NNE 76% 1009.0hPa (29.80 inHg) 3.0mm (0.12 in.)
4:35 16.1°C (61.0 °F) 11.1 kmh (6.9 mph) NNW 76% 1009.0hPa (29.80 inHg) 3.0mm (0.12 in.)
3:35 16.0°C (60.8 °F) 13.0 kmh (8.1 mph) W 76% 1009.0hPa (29.80 inHg) 3.0mm (0.12 in.)
2:35 17.2°C (63.0 °F) 3.7 kmh (2.3 mph) NW 72% 1009.0hPa (29.80 inHg) 3.0mm (0.12 in.)
1:35 17.6°C (63.7 °F) 13.0 kmh (8.1 mph) WNW 71% 1009.0hPa (29.80 inHg) 2.0mm (0.08 in.)
12:35 17.9°C (64.2 °F) 13.0 kmh (8.1 mph) NNW 72% 1009.0hPa (29.80 inHg) 2.0mm (0.08 in.)
11:35 17.6°C (63.7 °F) 14.8 kmh (9.2 mph) NNW 73% 1010.0hPa (29.83 inHg) 2.0mm (0.08 in.)
10:35 17.1°C (62.8 °F) 16.7 kmh (10.4 mph) NNW 75% 1011.0hPa (29.85 inHg) 2.0mm (0.08 in.)
9:35 16.8°C (62.2 °F) 25.9 kmh (16.1 mph) NNE 77% 1011.0hPa (29.85 inHg) 2.0mm (0.08 in.)
8:35 16.3°C (61.3 °F) 16.7 kmh (10.4 mph) NNE 75% 1010.0hPa (29.83 inHg) 2.0mm (0.08 in.)
7:35 15.8°C (60.4 °F) 9.3 kmh (5.8 mph) NE 71% 1010.0hPa (29.83 inHg) 2.0mm (0.08 in.)
6:35 16.1°C (61.0 °F) 13.0 kmh (8.1 mph) NNE 70% 1010.0hPa (29.83 inHg) 0.0mm (0.00 in.)